Time;durP1;ratioP1;P1;durP2;ratioP2;P2;SDS_P1;SDS_P2;PMS_P1;PMS_P2;Temp;Humidity;BMP_temperature;BMP_pressure;BME280_temperature;BME280_humidity;BME280_pressure;Samples;Min_cycle;Max_cycle;Signal;HPM_P1;HPM_P2
2022/09/27 00:01:08;;;;;;;2.60;2.20;;;;;;;24.71;40.29;100713.19;4198129;28;20078;-62
2022/09/27 00:03:11;;;;;;;2.42;1.80;;;;;;;24.70;40.60;100722.72;4197545;28;20044;-63
2022/09/27 00:05:12;;;;;;;5.97;2.10;;;;;;;24.74;40.51;100729.34;4198049;28;20032;-63
2022/09/27 00:07:16;;;;;;;2.33;1.77;;;;;;;24.69;40.00;100709.84;4198285;28;20044;-62
2022/09/27 00:09:17;;;;;;;4.10;1.98;;;;;;;24.73;39.91;100722.06;4198217;28;20480;-63
2022/09/27 00:11:35;;;;;;;3.60;1.90;;;;;;;24.72;39.91;100731.63;4198308;28;20045;-62
2022/09/27 00:13:36;;;;;;;6.82;1.85;;;;;;;24.74;39.85;100726.56;4197795;28;20032;-63
2022/09/27 00:15:46;;;;;;;4.55;1.90;;;;;;;24.72;40.02;100728.00;4198118;28;20032;-62
2022/09/27 00:17:50;;;;;;;3.10;2.08;;;;;;;24.75;40.22;100733.81;4198390;28;20032;-62
2022/09/27 00:19:54;;;;;;;4.55;2.53;;;;;;;24.75;40.54;100733.81;4197782;28;20044;-63
2022/09/27 00:21:56;;;;;;;3.63;1.67;;;;;;;24.76;40.57;100731.81;4197470;28;20040;-62
2022/09/27 00:23:58;;;;;;;3.30;2.13;;;;;;;24.74;40.74;100734.09;4197957;28;20104;-62
2022/09/27 00:26:00;;;;;;;4.88;1.92;;;;;;;24.76;40.84;100735.44;4198039;28;20045;-62
2022/09/27 00:28:04;;;;;;;5.78;2.00;;;;;;;24.76;40.64;100735.44;4197965;28;20044;-62
2022/09/27 00:30:06;;;;;;;3.63;1.75;;;;;;;24.77;40.32;100734.31;4198147;28;20028;-62
2022/09/27 00:32:13;;;;;;;3.42;2.15;;;;;;;24.73;40.91;100730.47;4197842;28;20454;-62
2022/09/27 00:34:23;;;;;;;3.83;2.05;;;;;;;24.73;40.59;100733.25;4197822;28;20036;-62
2022/09/27 00:36:26;;;;;;;3.13;2.08;;;;;;;24.79;40.67;100742.41;4197564;28;20040;-63
2022/09/27 00:38:27;;;;;;;2.22;1.52;;;;;;;24.80;40.81;100744.88;4197489;28;20423;-62
2022/09/27 00:40:28;;;;;;;7.50;1.95;;;;;;;24.80;40.86;100747.69;4197530;28;20361;-62
2022/09/27 00:42:29;;;;;;;2.70;1.80;;;;;;;24.80;40.44;100750.47;4197164;28;20471;-62
2022/09/27 00:44:37;;;;;;;4.40;1.90;;;;;;;24.80;40.07;100761.69;4197239;28;20044;-62
2022/09/27 00:46:46;;;;;;;4.05;1.95;;;;;;;24.71;40.34;100740.34;4197897;28;20487;-62
2022/09/27 00:49:11;;;;;;;2.60;1.65;;;;;;;24.80;40.15;100760.84;4197549;28;20044;-62
2022/09/27 00:51:13;;;;;;;4.80;1.70;;;;;;;24.82;40.15;100759.38;4197370;28;20090;-62
2022/09/27 00:53:20;;;;;;;6.97;1.70;;;;;;;24.62;40.13;100726.25;4196899;28;20468;-64
2022/09/27 00:55:28;;;;;;;3.03;1.63;;;;;;;24.81;40.22;100757.72;4197712;28;20090;-63
2022/09/27 00:57:29;;;;;;;2.63;1.73;;;;;;;24.83;40.01;100763.00;4197222;28;20040;-63
2022/09/27 01:00:08;;;;;;;1.90;1.50;;;;;;;24.76;40.20;100769.03;4197697;28;20093;-63
2022/09/27 01:02:13;;;;;;;2.47;1.42;;;;;;;24.84;40.17;100779.50;4197004;28;20478;-63
2022/09/27 01:04:17;;;;;;;3.00;1.50;;;;;;;24.85;40.57;100777.53;4197368;28;20597;-63
2022/09/27 01:06:20;;;;;;;2.22;1.75;;;;;;;24.84;40.42;100773.91;4197422;28;20036;-64
2022/09/27 01:08:27;;;;;;;3.67;2.25;;;;;;;24.82;40.57;100775.34;4196975;28;20040;-63
2022/09/27 01:10:39;;;;;;;3.03;1.70;;;;;;;24.64;40.71;100740.72;4197015;28;20488;-64
2022/09/27 01:13:11;;;;;;;3.42;1.40;;;;;;;24.83;40.77;100780.66;4196901;28;20558;-63
2022/09/27 01:15:36;;;;;;;3.70;1.50;;;;;;;24.82;40.38;100787.38;4197559;28;20040;-63
2022/09/27 01:17:59;;;;;;;2.83;1.95;;;;;;;24.84;40.29;100782.31;4197536;28;20113;-63
2022/09/27 01:20:25;;;;;;;3.15;1.73;;;;;;;24.83;39.98;100789.03;4197684;28;20036;-64
2022/09/27 01:22:37;;;;;;;2.65;1.50;;;;;;;24.82;40.00;100798.56;4197112;28;20434;-62
2022/09/27 01:24:50;;;;;;;2.38;1.73;;;;;;;24.82;40.39;100815.34;4197560;28;20036;-62
2022/09/27 01:27:29;;;;;;;2.17;1.88;;;;;;;24.65;40.50;100783.53;4197434;28;20106;-62
2022/09/27 01:29:53;;;;;;;2.28;1.83;;;;;;;24.85;40.35;100799.91;4197668;28;20099;-62
2022/09/27 01:32:23;;;;;;;2.03;1.50;;;;;;;24.83;40.29;100791.84;4182565;28;20044;-62
2022/09/27 01:34:29;;;;;;;2.17;1.60;;;;;;;24.87;39.96;100799.59;4129584;28;20100;-62
2022/09/27 01:36:57;;;;;;;2.17;1.60;;;;;;;24.81;40.38;100793.28;4177052;28;20048;-62
2022/09/27 01:39:20;;;;;;;3.67;1.92;;;;;;;24.87;40.49;100800.44;4159397;28;20094;-62
2022/09/27 01:41:36;;;;;;;2.28;1.45;;;;;;;24.87;40.30;100794.00;4197416;28;20032;-62
2022/09/27 01:43:42;;;;;;;2.08;1.50;;;;;;;24.71;40.06;100774.72;4196991;28;20044;-63
2022/09/27 01:45:52;;;;;;;2.03;1.48;;;;;;;24.78;40.03;100782.69;4194373;28;20086;-62
2022/09/27 01:47:58;;;;;;;1.90;1.45;;;;;;;24.84;40.00;100807.50;4185808;28;20476;-63
2022/09/27 01:50:17;;;;;;;1.98;1.60;;;;;;;24.83;40.60;100817.03;4198473;28;20040;-62
2022/09/27 01:52:22;;;;;;;1.80;1.50;;;;;;;24.60;40.43;100784.44;4202805;28;20431;-62
2022/09/27 01:54:25;;;;;;;;;;;;;;;24.84;40.33;100835.47;4197046;28;20090;-62
2022/09/27 01:56:40;;;;;;;1.90;1.55;;;;;;;24.82;40.16;100826.53;4205204;28;19912;-62
2022/09/27 01:59:07;;;;;;;3.30;1.38;;;;;;;24.83;40.24;100828.22;4205798;28;20032;-63
2022/09/27 02:01:10;;;;;;;2.22;1.38;;;;;;;24.89;40.42;100831.75;4196703;28;20032;-62
2022/09/27 02:03:17;;;;;;;1.73;1.45;;;;;;;24.82;40.02;100820.94;4202588;28;20025;-62
2022/09/27 02:05:21;;;;;;;2.10;1.40;;;;;;;24.84;39.92;100821.47;4213504;28;20036;-62
2022/09/27 02:07:28;;;;;;;5.47;1.50;;;;;;;24.87;40.07;100833.19;4213396;28;20089;-62
2022/09/27 02:09:54;;;;;;;3.03;1.23;;;;;;;24.81;39.87;100824.91;4213153;28;20052;-62
2022/09/27 02:12:02;;;;;;;3.80;1.30;;;;;;;24.87;40.12;100827.59;4213216;28;20040;-62
2022/09/27 02:14:27;;;;;;;2.38;1.63;;;;;;;24.83;39.83;100825.44;4213752;28;20028;-62
2022/09/27 02:16:42;;;;;;;2.70;1.20;;;;;;;24.84;39.94;100827.09;4197794;28;20068;-62
2022/09/27 02:19:09;;;;;;;3.08;1.10;;;;;;;24.84;39.90;100829.88;4196778;28;20469;-62
2022/09/27 02:21:14;;;;;;;2.45;1.10;;;;;;;24.83;39.81;100831.03;4188456;28;20041;-63
2022/09/27 02:23:18;;;;;;;;;;;;;;;24.82;40.13;100836.91;4199654;28;20109;-62
2022/09/27 02:25:24;;;;;;;1.20;1.10;;;;;;;24.87;39.78;100835.97;4198410;28;20395;-63
2022/09/27 02:27:46;;;;;;;5.50;1.40;;;;;;;24.87;39.99;100844.38;4199561;28;20071;-62
2022/09/27 02:29:58;;;;;;;2.30;0.98;;;;;;;24.87;39.91;100845.22;4199498;28;20102;-62
2022/09/27 02:31:59;;;;;;;1.23;1.13;;;;;;;24.87;39.92;100836.81;4198983;28;20049;-63
2022/09/27 02:34:07;;;;;;;3.13;1.30;;;;;;;24.85;40.04;100837.13;4199462;28;20094;-63
2022/09/27 02:36:09;;;;;;;2.45;1.50;;;;;;;24.82;40.15;100831.31;4199386;28;20472;-62
2022/09/27 02:38:10;;;;;;;2.28;1.48;;;;;;;24.57;40.14;100804.69;4199567;28;20427;-62
2022/09/27 02:40:12;;;;;;;2.97;1.48;;;;;;;24.56;40.20;100800.22;4199452;28;20097;-62
2022/09/27 02:42:16;;;;;;;2.80;1.00;;;;;;;24.75;40.18;100840.13;4199307;28;20110;-62
2022/09/27 02:44:20;;;;;;;2.28;1.20;;;;;;;24.80;40.17;100853.19;4185759;28;20037;-63
2022/09/27 02:46:51;;;;;;;1.50;1.30;;;;;;;24.79;40.45;100860.78;4199779;28;20037;-62
2022/09/27 02:49:27;;;;;;;2.67;1.13;;;;;;;24.78;40.33;100856.28;4211774;28;20085;-62
2022/09/27 02:51:58;;;;;;;2.05;1.20;;;;;;;24.79;40.34;100855.16;4170388;28;20036;-61
2022/09/27 02:54:33;;;;;;;2.67;1.30;;;;;;;24.78;40.12;100856.28;4199514;28;20037;-61
2022/09/27 02:57:10;;;;;;;1.63;1.17;;;;;;;24.79;40.15;100857.97;4199406;28;20044;-62
2022/09/27 02:59:27;;;;;;;2.15;1.30;;;;;;;24.79;40.50;100855.16;4185256;28;20044;-61
2022/09/27 03:02:02;;;;;;;3.10;1.20;;;;;;;24.82;40.45;100848.09;4195656;28;20438;-62
2022/09/27 03:04:12;;;;;;;2.38;1.63;;;;;;;24.84;40.27;100852.28;4199271;28;20121;-62
2022/09/27 03:06:17;;;;;;;1.20;1.10;;;;;;;24.83;40.72;100842.22;4199239;28;20040;-61
2022/09/27 03:08:19;;;;;;;3.28;1.52;;;;;;;24.84;40.74;100846.69;4198721;28;20083;-62
2022/09/27 03:10:24;;;;;;;1.73;1.13;;;;;;;24.83;40.36;100839.44;4198877;28;20545;-62
2022/09/27 03:12:26;;;;;;;1.83;1.38;;;;;;;24.83;40.41;100842.22;4198635;28;20435;-61
2022/09/27 03:14:27;;;;;;;1.80;1.23;;;;;;;24.81;40.54;100847.28;4198790;28;20086;-62
2022/09/27 03:16:28;;;;;;;3.03;1.30;;;;;;;24.82;39.93;100840.53;4193811;28;20086;-62
2022/09/27 03:18:30;;;;;;;2.67;1.17;;;;;;;24.82;40.39;100843.34;4181739;28;20045;-62
2022/09/27 03:20:31;;;;;;;3.17;1.30;;;;;;;24.83;40.24;100838.56;4182503;28;20024;-62
2022/09/27 03:22:33;;;;;;;3.00;1.15;;;;;;;24.82;40.07;100832.16;4182221;28;20045;-62
2022/09/27 03:24:34;;;;;;;2.88;1.38;;;;;;;24.82;40.72;100843.34;4182422;28;20095;-61
2022/09/27 03:26:35;;;;;;;2.20;1.17;;;;;;;24.83;40.60;100845.03;4182188;28;20102;-61
2022/09/27 03:28:36;;;;;;;1.70;1.33;;;;;;;24.83;40.37;100847.81;4181332;28;20447;-62
2022/09/27 03:30:38;;;;;;;2.08;1.40;;;;;;;24.84;40.43;100852.28;4182446;28;20465;-62
2022/09/27 03:32:43;;;;;;;2.67;1.15;;;;;;;24.82;39.78;100857.34;4182445;28;20045;-62
2022/09/27 03:34:45;;;;;;;2.55;1.30;;;;;;;24.82;40.58;100860.13;4182197;28;20543;-62
2022/09/27 03:36:46;;;;;;;3.00;1.02;;;;;;;24.83;40.63;100873.00;4182237;28;20033;-61
2022/09/27 03:38:47;;;;;;;4.65;1.23;;;;;;;24.84;41.09;100873.84;4195699;28;20041;-61
2022/09/27 03:40:48;;;;;;;2.42;1.20;;;;;;;24.80;40.67;100862.41;4196176;28;20422;-62
2022/09/27 03:42:52;;;;;;;1.58;1.20;;;;;;;24.87;41.05;100878.78;4197744;28;20483;-61
2022/09/27 03:44:53;;;;;;;1.85;1.38;;;;;;;24.83;40.75;100877.75;4197815;28;20041;-62
2022/09/27 03:46:55;;;;;;;2.58;1.17;;;;;;;24.88;40.58;100880.47;4197029;28;20048;-62
2022/09/27 03:48:56;;;;;;;1.35;1.10;;;;;;;24.85;41.08;100887.50;4198122;28;20094;-61
2022/09/27 03:50:57;;;;;;;1.92;1.35;;;;;;;24.82;40.68;100871.31;4197942;28;20102;-61
2022/09/27 03:52:58;;;;;;;3.05;1.20;;;;;;;24.89;40.87;100889.69;4196288;28;20199;-62
2022/09/27 03:55:03;;;;;;;1.73;1.30;;;;;;;24.88;41.00;100897.28;4197612;28;20036;-62
2022/09/27 03:57:04;;;;;;;1.98;1.27;;;;;;;24.89;40.79;100889.69;4196676;28;20036;-61
2022/09/27 03:59:06;;;;;;;1.80;1.38;;;;;;;24.89;40.63;100898.94;4198169;28;20044;-61
2022/09/27 04:01:10;;;;;;;2.47;0.95;;;;;;;24.68;40.28;100864.06;4198502;28;20066;-62
2022/09/27 04:03:12;;;;;;;2.88;1.17;;;;;;;24.76;40.67;100882.94;4197707;28;20094;-63
2022/09/27 04:05:16;;;;;;;1.98;1.08;;;;;;;24.87;40.37;100906.78;4198438;28;20427;-62
2022/09/27 04:07:17;;;;;;;2.37;1.07;;;;;;;24.89;40.08;100903.69;4194614;28;20028;-63
2022/09/27 04:09:19;;;;;;;1.95;1.00;;;;;;;24.87;40.32;100903.16;4188480;28;20342;-61
2022/09/27 04:11:22;;;;;;;1.33;1.20;;;;;;;24.89;40.78;100901.72;4198560;28;20040;-61
2022/09/27 04:13:23;;;;;;;1.95;1.27;;;;;;;24.90;40.72;100902.56;4190748;28;20032;-62
2022/09/27 04:15:24;;;;;;;2.60;1.58;;;;;;;24.90;40.64;100899.75;4181801;28;20045;-62
2022/09/27 04:17:26;;;;;;;1.27;1.08;;;;;;;24.82;40.45;100887.28;4181713;28;20098;-61
2022/09/27 04:19:27;;;;;;;1.25;1.00;;;;;;;24.34;40.92;100815.69;4181843;28;20045;-61
2022/09/27 04:21:32;;;;;;;1.88;1.40;;;;;;;24.90;41.06;100905.34;4183215;28;20091;-61
2022/09/27 04:23:36;;;;;;;3.25;1.05;;;;;;;24.80;40.59;100890.41;4202640;28;20095;-61
2022/09/27 04:25:38;;;;;;;3.27;1.37;;;;;;;24.87;41.12;100900.34;4203466;28;20097;-62
2022/09/27 04:27:47;;;;;;;1.83;1.10;;;;;;;24.69;41.04;100863.75;4188731;28;20049;-62
2022/09/27 04:29:51;;;;;;;1.33;1.13;;;;;;;24.92;40.81;100903.88;4198500;28;20086;-62
2022/09/27 04:31:52;;;;;;;2.23;1.43;;;;;;;24.93;40.77;100899.97;4196943;28;20098;-61
2022/09/27 04:33:53;;;;;;;1.55;1.05;;;;;;;24.87;40.87;100890.00;4198082;28;20040;-62
2022/09/27 04:38:14;;;;;;;2.38;1.17;;;;;;;24.93;40.73;100893.53;4198511;28;20090;-61
2022/09/27 04:40:21;;;;;;;2.15;1.20;;;;;;;24.89;41.20;100886.91;4192692;28;20091;-63
2022/09/27 04:42:22;;;;;;;3.78;1.25;;;;;;;24.83;40.78;100878.59;4197277;28;20049;-62
2022/09/27 04:44:26;;;;;;;2.00;1.15;;;;;;;24.93;41.20;100904.75;4185639;28;20032;-62
2022/09/27 04:46:31;;;;;;;1.40;0.95;;;;;;;24.89;40.63;100886.91;4196262;28;20048;-62
2022/09/27 04:48:36;;;;;;;1.75;1.20;;;;;;;24.94;40.97;100914.78;4197375;28;20480;-62
2022/09/27 04:50:40;;;;;;;1.73;1.30;;;;;;;24.93;41.10;100904.75;4181585;28;20032;-62
2022/09/27 04:52:42;;;;;;;1.48;1.38;;;;;;;24.97;41.13;100922.56;4180441;28;20037;-62
2022/09/27 04:54:43;;;;;;;1.20;0.95;;;;;;;24.94;41.11;100912.00;4180778;28;20047;-61
2022/09/27 04:56:45;;;;;;;4.20;1.00;;;;;;;24.96;40.86;100907.72;4180733;28;20037;-62
2022/09/27 04:58:46;;;;;;;1.52;0.90;;;;;;;24.93;40.73;100901.94;4180776;28;20523;-62
2022/09/27 05:00:48;;;;;;;1.25;1.08;;;;;;;24.94;40.67;100906.41;4180937;28;20442;-62
2022/09/27 05:02:49;;;;;;;1.95;1.00;;;;;;;24.94;40.87;100910.03;4196460;28;20377;-62
2022/09/27 05:04:56;;;;;;;1.55;1.23;;;;;;;24.95;40.74;100903.28;4197317;28;20090;-62
2022/09/27 05:06:58;;;;;;;1.42;1.02;;;;;;;24.95;40.97;100903.28;4197529;28;20106;-62
2022/09/27 05:08:59;;;;;;;1.92;1.50;;;;;;;24.95;40.97;100903.28;4197501;28;20036;-61
2022/09/27 05:11:00;;;;;;;1.90;1.10;;;;;;;24.94;40.34;100895.19;4197328;28;20036;-61
2022/09/27 05:13:05;;;;;;;1.27;1.02;;;;;;;24.94;40.10;100892.41;4197364;28;20040;-63
2022/09/27 05:15:07;;;;;;;1.90;1.13;;;;;;;24.94;39.82;100889.59;4185265;28;20099;-61
2022/09/27 05:17:12;;;;;;;1.25;0.95;;;;;;;24.92;40.04;100894.66;4181146;28;20538;-62
2022/09/27 05:19:13;;;;;;;1.35;1.10;;;;;;;24.91;39.86;100896.63;4181151;28;20029;-61
2022/09/27 05:21:14;;;;;;;2.33;0.90;;;;;;;24.92;39.53;100903.06;4180550;28;20033;-62
2022/09/27 05:23:16;;;;;;;1.23;1.00;;;;;;;24.90;39.63;100905.34;4180067;28;20103;-62
2022/09/27 05:25:18;;;;;;;1.08;0.82;;;;;;;24.74;39.37;100883.25;4191586;28;20070;-62
2022/09/27 05:27:22;;;;;;;0.98;0.90;;;;;;;24.83;39.83;100911.34;4205422;28;20036;-62
2022/09/27 05:29:23;;;;;;;1.60;1.23;;;;;;;24.90;40.01;100913.75;4196927;28;20533;-62
2022/09/27 05:31:25;;;;;;;1.00;0.90;;;;;;;24.90;39.61;100913.75;4190523;28;20053;-62
2022/09/27 05:33:27;;;;;;;1.23;1.13;;;;;;;24.89;39.39;100903.69;4180795;28;20037;-62
2022/09/27 05:35:28;;;;;;;1.00;0.80;;;;;;;24.85;39.42;100898.72;4180493;28;20394;-62
2022/09/27 05:37:30;;;;;;;1.63;0.98;;;;;;;24.85;39.57;100901.50;4181917;28;20350;-62
2022/09/27 05:39:31;;;;;;;1.00;0.90;;;;;;;24.78;39.44;100889.03;4197455;28;20036;-62
2022/09/27 05:41:33;;;;;;;1.25;1.05;;;;;;;24.89;39.89;100909.28;4197129;28;20488;-62
2022/09/27 05:43:35;;;;;;;1.70;1.13;;;;;;;24.90;39.77;100910.94;4203119;28;20032;-61
2022/09/27 05:45:36;;;;;;;0.88;0.82;;;;;;;24.68;39.86;100881.66;4213730;28;20093;-61
2022/09/27 05:47:37;;;;;;;0.90;0.70;;;;;;;24.90;39.88;100905.34;4213020;28;20082;-62
2022/09/27 05:49:47;;;;;;;1.10;1.00;;;;;;;24.82;39.63;100896.50;4196624;28;20041;-61
2022/09/27 05:51:49;;;;;;;1.13;1.00;;;;;;;24.84;39.93;100896.22;4196949;28;20040;-61
2022/09/27 05:53:50;;;;;;;1.52;1.05;;;;;;;24.81;39.78;100888.44;4196939;28;20041;-61
2022/09/27 05:55:51;;;;;;;3.05;0.80;;;;;;;24.90;40.57;100910.94;4197339;28;20540;-61
2022/09/27 05:58:00;;;;;;;1.67;1.00;;;;;;;24.90;40.35;100910.94;4202081;28;20040;-63
2022/09/27 06:00:02;;;;;;;1.15;0.98;;;;;;;24.90;40.43;100905.34;4206586;28;20040;-62
2022/09/27 06:02:03;;;;;;;1.38;0.85;;;;;;;24.70;40.42;100873.81;4199585;28;20036;-62
2022/09/27 06:04:05;;;;;;;1.00;0.90;;;;;;;24.89;40.24;100904.53;4209922;28;20036;-61
2022/09/27 06:06:06;;;;;;;2.75;1.00;;;;;;;24.71;40.29;100875.47;4192146;28;20075;-62
2022/09/27 06:08:10;;;;;;;1.17;0.80;;;;;;;24.90;40.23;100910.94;4183641;28;20041;-62
2022/09/27 06:10:15;;;;;;;1.85;1.00;;;;;;;24.89;40.47;100904.53;4183220;28;20048;-62
2022/09/27 06:12:19;;;;;;;1.00;0.90;;;;;;;24.90;39.80;100910.94;4183242;28;20045;-62
2022/09/27 06:14:21;;;;;;;1.08;1.00;;;;;;;24.90;39.84;100906.19;4183498;28;20040;-62
2022/09/27 06:16:34;;;;;;;1.90;0.85;;;;;;;24.90;39.92;100891.34;4204970;28;20560;-62
2022/09/27 06:18:35;;;;;;;1.10;1.00;;;;;;;24.66;39.84;100849.56;4216544;28;20101;-62
2022/09/27 06:20:41;;;;;;;1.70;1.02;;;;;;;24.90;39.72;100900.56;4216435;28;20113;-63
2022/09/27 06:22:44;;;;;;;1.13;1.02;;;;;;;24.91;40.05;100904.19;4204043;28;20434;-62
2022/09/27 06:24:54;;;;;;;1.27;0.90;;;;;;;24.89;39.99;100895.31;4199674;28;20067;-62
2022/09/27 06:26:55;;;;;;;1.35;0.80;;;;;;;24.90;39.62;100902.56;4188035;28;20045;-62
2022/09/27 06:28:57;;;;;;;1.70;0.73;;;;;;;24.89;39.52;100881.31;4211718;28;20106;-62
2022/09/27 06:31:01;;;;;;;1.33;0.75;;;;;;;24.89;40.20;100886.91;4200622;28;20040;-62
2022/09/27 06:33:05;;;;;;;1.23;0.90;;;;;;;24.90;39.44;100882.97;4198992;28;20044;-62
2022/09/27 06:35:06;;;;;;;1.67;0.70;;;;;;;24.69;40.32;100846.13;4198012;28;20036;-62
2022/09/27 06:37:08;;;;;;;2.08;0.80;;;;;;;24.89;39.64;100884.09;4198591;28;20482;-62
2022/09/27 06:39:09;;;;;;;2.85;1.17;;;;;;;24.89;39.91;100878.50;4190524;28;20045;-61
2022/09/27 06:41:12;;;;;;;1.58;1.02;;;;;;;24.89;39.73;100875.72;4185988;28;20041;-62
2022/09/27 06:43:15;;;;;;;1.10;1.00;;;;;;;24.66;39.67;100833.59;4190796;28;20044;-61
2022/09/27 06:45:17;;;;;;;1.27;1.10;;;;;;;24.83;40.09;100867.41;4199535;28;20052;-62
2022/09/27 06:47:18;;;;;;;2.85;0.98;;;;;;;24.89;40.05;100881.31;4194225;28;20037;-62
2022/09/27 06:49:30;;;;;;;1.00;0.90;;;;;;;24.89;40.14;100870.09;4199143;28;20052;-62
2022/09/27 06:51:31;;;;;;;1.35;1.00;;;;;;;24.90;40.34;100868.97;4191316;28;20041;-61
2022/09/27 06:53:33;;;;;;;1.33;0.90;;;;;;;24.68;39.99;100848.09;4197806;28;20033;-61
2022/09/27 06:55:37;;;;;;;1.17;0.80;;;;;;;24.88;40.04;100874.03;4198263;28;20082;-61
2022/09/27 07:02:17;;;;;;;2.92;1.00;;;;;;;24.89;39.46;100864.50;4198264;28;20101;-63
2022/09/27 07:04:19;;;;;;;0.90;0.80;;;;;;;24.88;39.27;100862.81;4186340;28;20103;-62
2022/09/27 07:06:23;;;;;;;0.95;0.77;;;;;;;24.87;39.41;100855.56;4185558;28;20456;-62
2022/09/27 07:08:26;;;;;;;1.27;0.70;;;;;;;24.85;39.39;100856.72;4194922;28;20090;-62
2022/09/27 07:10:33;;;;;;;1.25;1.15;;;;;;;24.83;39.44;100849.75;4189381;28;20048;-62
2022/09/27 07:12:38;;;;;;;1.10;0.80;;;;;;;24.85;39.31;100850.31;4198506;28;20476;-61
2022/09/27 07:14:42;;;;;;;0.95;0.80;;;;;;;24.86;39.51;100849.16;4198417;28;20106;-62
2022/09/27 07:16:44;;;;;;;1.58;1.17;;;;;;;24.79;40.17;100843.16;4198010;28;20048;-62
2022/09/27 07:18:48;;;;;;;1.55;0.75;;;;;;;24.85;39.86;100859.53;4199138;28;20052;-62
2022/09/27 07:20:52;;;;;;;1.38;0.82;;;;;;;24.72;39.63;100848.31;4198933;28;20044;-62
2022/09/27 07:22:53;;;;;;;1.63;1.00;;;;;;;24.83;40.17;100861.81;4198849;28;20082;-62
2022/09/27 07:24:54;;;;;;;0.80;0.73;;;;;;;24.87;39.88;100861.19;4198606;28;20037;-62
2022/09/27 07:26:56;;;;;;;2.35;1.08;;;;;;;24.87;39.55;100866.78;4189611;28;20044;-61
2022/09/27 07:28:58;;;;;;;1.08;0.70;;;;;;;24.85;39.43;100864.28;4182102;28;20102;-62
2022/09/27 07:31:02;;;;;;;0.90;0.80;;;;;;;24.85;39.72;100869.91;4192817;28;20040;-62
2022/09/27 07:33:05;;;;;;;2.38;0.75;;;;;;;24.85;39.87;100865.13;4197505;28;20114;-62
2022/09/27 07:35:08;;;;;;;0.90;0.77;;;;;;;24.84;39.72;100857.88;4198979;28;20032;-62
2022/09/27 07:37:09;;;;;;;3.00;0.90;;;;;;;24.86;39.97;100868.75;4195543;28;20108;-62
2022/09/27 07:39:10;;;;;;;4.25;1.17;;;;;;;24.85;39.48;100865.13;4195997;28;20040;-62
2022/09/27 07:41:13;;;;;;;3.72;1.10;;;;;;;24.83;39.77;100873.00;4195413;28;20113;-62
2022/09/27 07:43:15;;;;;;;1.05;0.90;;;;;;;24.85;39.51;100873.50;4182742;28;20041;-62
2022/09/27 07:45:16;;;;;;;0.93;0.70;;;;;;;24.85;39.72;100875.50;4197459;28;20044;-62
2022/09/27 07:47:18;;;;;;;1.30;0.95;;;;;;;24.85;39.91;100873.50;4197227;28;20044;-61
2022/09/27 07:49:19;;;;;;;0.88;0.75;;;;;;;24.85;39.93;100862.31;4196235;28;20439;-62
2022/09/27 07:51:21;;;;;;;1.90;0.90;;;;;;;24.85;40.04;100870.72;4190833;28;20114;-62
2022/09/27 07:53:28;;;;;;;1.05;0.95;;;;;;;24.84;39.70;100874.66;4197620;28;20045;-62
2022/09/27 07:55:30;;;;;;;0.82;0.70;;;;;;;24.86;39.82;100879.94;4182534;28;20041;-62
2022/09/27 07:57:31;;;;;;;0.80;0.80;;;;;;;24.84;39.79;100873.84;4181615;28;20052;-62
2022/09/27 07:59:32;;;;;;;1.30;1.00;;;;;;;24.83;39.84;100870.22;4181251;28;20094;-62
2022/09/27 08:01:34;;;;;;;1.35;0.70;;;;;;;24.83;39.49;100867.41;4181571;28;20550;-62
2022/09/27 08:03:35;;;;;;;0.93;0.73;;;;;;;24.80;39.51;100862.41;4191517;28;20537;-62
2022/09/27 08:05:36;;;;;;;1.15;0.88;;;;;;;24.83;40.06;100869.34;4185698;28;20107;-62
2022/09/27 08:07:39;;;;;;;0.98;0.90;;;;;;;24.82;39.72;100882.53;4191061;28;20102;-62
2022/09/27 08:09:45;;;;;;;1.25;0.65;;;;;;;24.83;39.22;100880.53;4198180;28;20450;-62
2022/09/27 08:11:47;;;;;;;0.90;0.77;;;;;;;24.68;39.58;100858.47;4183315;28;20166;-61
2022/09/27 08:13:51;;;;;;;0.88;0.77;;;;;;;24.80;39.82;100882.00;4194217;28;20040;-62
2022/09/27 08:15:52;;;;;;;1.08;0.80;;;;;;;24.76;39.71;100871.75;4195893;28;20108;-62
2022/09/27 08:17:54;;;;;;;0.90;0.70;;;;;;;24.82;40.05;100882.53;4184668;28;20141;-62
2022/09/27 08:19:58;;;;;;;1.48;0.90;;;;;;;24.82;39.96;100893.72;4194722;28;20033;-62
2022/09/27 08:21:59;;;;;;;1.50;0.90;;;;;;;24.82;39.91;100888.13;4193469;28;20032;-63
2022/09/27 08:24:03;;;;;;;0.80;0.80;;;;;;;24.82;39.81;100899.31;4186663;28;20098;-61
2022/09/27 08:26:05;;;;;;;2.15;1.00;;;;;;;24.82;39.87;100899.31;4196731;28;20090;-61
2022/09/27 08:28:06;;;;;;;1.20;0.82;;;;;;;24.78;39.51;100889.88;4195265;28;20028;-62
2022/09/27 08:30:08;;;;;;;0.70;0.70;;;;;;;24.81;39.88;100894.84;4196986;28;20044;-61
2022/09/27 08:32:12;;;;;;;1.40;0.70;;;;;;;24.81;39.79;100891.22;4196608;28;20036;-61
2022/09/27 08:34:16;;;;;;;1.75;0.82;;;;;;;24.74;39.71;100868.41;4198090;28;20097;-61
2022/09/27 08:36:19;;;;;;;1.37;0.63;;;;;;;24.82;39.98;100888.13;4191592;28;20033;-61
2022/09/27 08:38:21;;;;;;;1.40;0.80;;;;;;;24.83;39.87;100886.16;4190546;28;20090;-61
2022/09/27 08:40:29;;;;;;;1.50;0.80;;;;;;;24.83;39.87;100895.41;4197643;28;20098;-61
2022/09/27 08:42:45;;;;;;;1.00;0.57;;;;;;;24.82;39.66;100896.50;4182823;28;20040;-61
2022/09/27 08:45:17;;;;;;;0.65;0.65;;;;;;;24.71;40.05;100892.25;4188957;28;20238;-61
2022/09/27 08:47:50;;;;;;;0.85;0.85;;;;;;;24.83;39.86;100917.78;4186673;28;20439;-63
2022/09/27 08:50:00;;;;;;;2.15;0.75;;;;;;;24.84;39.87;100919.44;4188589;28;20439;-61
2022/09/27 08:52:06;;;;;;;0.95;0.85;;;;;;;24.81;39.69;100914.44;4180952;28;20041;-61
2022/09/27 08:54:29;;;;;;;1.23;0.80;;;;;;;24.82;39.79;100921.69;4181234;28;20048;-61
2022/09/27 08:56:31;;;;;;;1.23;0.63;;;;;;;24.83;39.85;100917.78;4193849;28;20126;-61
2022/09/27 08:58:47;;;;;;;0.90;0.85;;;;;;;24.81;39.71;100920.06;4185962;28;20090;-61
2022/09/27 09:01:03;;;;;;;0.80;0.80;;;;;;;24.71;39.77;100900.66;4197878;28;20044;-62
2022/09/27 09:03:05;;;;;;;1.13;0.70;;;;;;;24.81;39.75;100917.25;4195386;28;20036;-61
2022/09/27 09:05:37;;;;;;;1.33;0.82;;;;;;;24.63;39.71;100884.56;4195416;28;20044;-61
2022/09/27 09:08:07;;;;;;;0.85;0.80;;;;;;;24.78;39.64;100909.47;4193901;28;20041;-61
2022/09/27 09:13:45;;;;;;;1.02;0.60;;;;;;;24.78;39.43;100912.25;4180920;28;20151;-61
2022/09/27 09:16:10;;;;;;;0.90;0.80;;;;;;;24.78;39.29;100908.63;4187591;28;20044;-61
2022/09/27 09:18:30;;;;;;;3.78;0.85;;;;;;;24.78;39.37;100903.88;4159103;28;20102;-61
2022/09/27 09:21:13;;;;;;;1.02;0.70;;;;;;;24.78;39.45;100909.47;4195680;28;20460;-61
2022/09/27 09:23:17;;;;;;;1.33;0.70;;;;;;;24.81;39.84;100911.66;4180593;28;20037;-61
2022/09/27 09:25:59;;;;;;;2.95;0.75;;;;;;;24.78;39.67;100906.66;4192970;28;20087;-61
2022/09/27 09:28:19;;;;;;;1.13;0.60;;;;;;;24.79;39.83;100910.31;4176047;28;20037;-61
2022/09/27 09:30:24;;;;;;;1.38;0.63;;;;;;;24.80;39.16;100906.38;4188266;28;20040;-62
2022/09/27 09:32:55;;;;;;;2.45;0.60;;;;;;;24.75;39.58;100898.06;4200468;28;20082;-62
2022/09/27 09:35:05;;;;;;;0.95;0.70;;;;;;;24.53;39.31;100856.78;4190052;28;20075;-62
2022/09/27 09:37:16;;;;;;;1.02;0.65;;;;;;;24.75;39.27;100898.91;4198421;28;20052;-63
2022/09/27 09:39:59;;;;;;;0.70;0.65;;;;;;;24.72;39.63;100885.53;4189386;28;20085;-62
2022/09/27 09:42:23;;;;;;;1.60;0.65;;;;;;;24.75;39.26;100893.31;4148181;28;20038;-63
2022/09/27 09:44:44;;;;;;;3.65;1.00;;;;;;;24.73;39.13;100895.56;4174333;28;20041;-62
2022/09/27 09:46:54;;;;;;;0.70;0.50;;;;;;;24.75;39.87;100896.09;4183872;28;20037;-62
2022/09/27 09:49:20;;;;;;;1.80;0.88;;;;;;;24.74;39.56;100894.44;4183756;28;20439;-62
2022/09/27 09:51:25;;;;;;;;;;;;;;;24.74;39.40;100882.41;4184402;28;20550;-62
2022/09/27 09:53:41;;;;;;;0.90;0.90;;;;;;;24.78;39.83;100889.03;4184189;28;20022;-63
2022/09/27 09:55:54;;;;;;;1.10;0.93;;;;;;;24.79;39.54;100899.94;4190197;28;20032;-62
2022/09/27 09:58:20;;;;;;;1.08;0.60;;;;;;;24.77;39.67;100885.41;4198788;28;20041;-62
2022/09/27 10:00:22;;;;;;;1.17;0.70;;;;;;;24.77;39.83;100898.59;4197871;28;20466;-62
2022/09/27 10:02:39;;;;;;;1.30;0.50;;;;;;;24.73;39.51;100901.16;4182966;28;20095;-62
2022/09/27 10:04:40;;;;;;;1.60;0.73;;;;;;;24.75;39.73;100903.66;4184989;28;20423;-62